createdAt,value
2018-12-14T00:00:43.302Z,16.05
2018-12-14T00:03:11.662Z,15.88
2018-12-14T00:05:39.983Z,16.73
2018-12-14T00:08:08.310Z,15.80
2018-12-14T00:10:36.623Z,16.15
2018-12-14T00:13:04.967Z,16.42
2018-12-14T00:15:34.211Z,16.87
2018-12-14T00:18:02.559Z,15.53
2018-12-14T00:20:30.888Z,16.62
2018-12-14T00:22:59.198Z,17.25
2018-12-14T00:25:27.539Z,14.38
2018-12-14T00:27:55.847Z,16.75
2018-12-14T00:30:24.182Z,15.80
2018-12-14T00:32:52.498Z,16.10
2018-12-14T00:35:20.963Z,16.65
2018-12-14T00:37:49.276Z,16.60
2018-12-14T00:40:17.599Z,16.40
2018-12-14T00:42:45.924Z,17.45
2018-12-14T00:45:14.248Z,17.30
2018-12-14T00:47:42.611Z,16.55
2018-12-14T00:50:10.935Z,15.30
2018-12-14T00:52:39.266Z,16.80
2018-12-14T00:55:07.871Z,19.90
2018-12-14T00:57:36.204Z,17.57
2018-12-14T01:00:05.394Z,17.75
2018-12-14T01:02:33.716Z,15.75
2018-12-14T01:05:02.113Z,15.63
2018-12-14T01:07:30.683Z,15.58
2018-12-14T01:09:58.998Z,15.80
2018-12-14T01:12:27.331Z,16.25
2018-12-14T01:14:55.675Z,15.98
2018-12-14T01:17:23.987Z,16.80
2018-12-14T01:19:52.323Z,16.90
2018-12-14T01:22:20.731Z,16.23
2018-12-14T01:24:49.063Z,16.15
2018-12-14T01:27:17.407Z,17.35
2018-12-14T01:29:45.726Z,16.37
2018-12-14T01:32:14.306Z,17.40
2018-12-14T01:34:42.683Z,15.68
2018-12-14T01:37:11.022Z,16.97
2018-12-14T01:39:39.330Z,16.45
2018-12-14T01:42:07.660Z,16.25
2018-12-14T01:44:35.990Z,16.77
2018-12-14T01:47:04.321Z,15.05
2018-12-14T01:49:33.263Z,16.20
2018-12-14T01:52:01.584Z,15.58
2018-12-14T01:54:29.942Z,15.20
2018-12-14T01:56:58.241Z,15.35
2018-12-14T01:59:26.581Z,16.05
2018-12-14T02:01:54.903Z,16.65
2018-12-14T02:04:23.215Z,15.80
2018-12-14T02:06:51.546Z,16.73
2018-12-14T02:09:19.862Z,16.45
2018-12-14T02:11:48.194Z,15.00
2018-12-14T02:14:16.523Z,14.43
2018-12-14T02:16:44.877Z,15.25
2018-12-14T02:19:13.186Z,16.20
2018-12-14T02:21:41.526Z,15.10
2018-12-14T02:24:09.843Z,14.73
2018-12-14T02:26:38.191Z,15.25
2018-12-14T02:29:06.509Z,15.32
2018-12-14T02:31:34.855Z,14.58
2018-12-14T02:34:03.185Z,14.60
2018-12-14T02:36:31.513Z,16.10
2018-12-14T02:38:59.845Z,15.53
2018-12-14T02:41:28.189Z,15.25
2018-12-14T02:43:56.520Z,14.63
2018-12-14T02:46:24.865Z,14.30
2018-12-14T02:48:53.189Z,16.12
2018-12-14T02:51:21.516Z,15.38
2018-12-14T02:53:49.837Z,14.28
2018-12-14T02:56:18.151Z,13.70
2018-12-14T02:58:46.477Z,14.45
2018-12-14T03:01:14.812Z,14.20
2018-12-14T03:03:43.138Z,14.15
2018-12-14T03:06:11.473Z,14.45
2018-12-14T03:08:39.791Z,15.30
2018-12-14T03:11:08.204Z,15.50
2018-12-14T03:13:36.711Z,14.53
2018-12-14T03:16:05.059Z,14.18
2018-12-14T03:18:33.385Z,17.65
2018-12-14T03:21:02.035Z,16.80
2018-12-14T03:23:30.378Z,14.43
2018-12-14T03:25:58.699Z,14.58
2018-12-14T03:28:27.046Z,14.18
2018-12-14T03:30:55.380Z,14.05
2018-12-14T03:33:23.702Z,14.10
2018-12-14T03:35:52.030Z,14.58
2018-12-14T03:38:20.355Z,15.30
2018-12-14T03:40:48.692Z,14.28
2018-12-14T03:43:17.277Z,14.28
2018-12-14T03:45:46.172Z,14.60
2018-12-14T03:48:14.507Z,14.07
2018-12-14T03:50:42.834Z,13.32
2018-12-14T03:53:11.182Z,14.28
2018-12-14T03:55:39.511Z,13.28
2018-12-14T03:58:07.848Z,14.43
2018-12-14T04:00:36.639Z,14.28
2018-12-14T04:03:05.034Z,12.85
2018-12-14T04:05:33.763Z,13.83
2018-12-14T04:08:02.102Z,14.20
2018-12-14T04:10:30.506Z,13.48
2018-12-14T04:12:58.828Z,13.83
2018-12-14T04:15:27.392Z,13.95
2018-12-14T04:17:55.715Z,13.88
2018-12-14T04:20:24.065Z,13.13
2018-12-14T04:22:52.386Z,15.13
2018-12-14T04:25:20.755Z,16.23
2018-12-14T04:27:49.086Z,13.80
2018-12-14T04:30:17.407Z,14.20
2018-12-14T04:32:45.730Z,13.98
2018-12-14T04:35:14.076Z,12.78
2018-12-14T04:37:42.406Z,14.28
2018-12-14T04:40:10.967Z,16.10
2018-12-14T04:42:39.559Z,14.40
2018-12-14T04:45:07.950Z,14.07
2018-12-14T04:47:36.267Z,14.00
2018-12-14T04:50:04.587Z,14.63
2018-12-14T04:52:32.967Z,13.20
2018-12-14T04:55:01.292Z,16.25
2018-12-14T04:57:29.634Z,14.13
2018-12-14T04:59:57.978Z,12.63
2018-12-14T05:02:26.303Z,12.98
2018-12-14T05:04:54.636Z,13.68
2018-12-14T05:07:22.987Z,14.93
2018-12-14T05:09:51.307Z,13.95
2018-12-14T05:12:19.658Z,14.65
2018-12-14T05:14:48.139Z,13.38
2018-12-14T05:17:16.755Z,14.68
2018-12-14T05:19:45.089Z,13.78
2018-12-14T05:22:13.418Z,14.00
2018-12-14T05:24:41.758Z,14.80
2018-12-14T05:27:10.358Z,14.63
2018-12-14T05:29:38.691Z,13.68
2018-12-14T05:32:07.044Z,14.20
2018-12-14T05:34:35.352Z,14.45
2018-12-14T05:37:03.691Z,15.03
2018-12-14T05:39:32.027Z,13.83
2018-12-14T05:42:00.352Z,15.15
2018-12-14T05:44:28.699Z,15.38
2018-12-14T05:46:57.012Z,15.35
2018-12-14T05:49:25.347Z,13.95
2018-12-14T05:51:53.682Z,15.30
2018-12-14T05:54:22.181Z,14.45
2018-12-14T05:56:50.582Z,14.73
2018-12-14T05:59:18.931Z,15.50
2018-12-14T06:01:47.262Z,15.00
2018-12-14T06:04:15.611Z,13.22
2018-12-14T06:06:44.062Z,13.62
2018-12-14T06:09:12.580Z,14.30
2018-12-14T06:11:40.895Z,14.40
2018-12-14T06:14:09.245Z,14.13
2018-12-14T06:16:37.799Z,13.38
2018-12-14T06:19:06.138Z,13.13
2018-12-14T06:21:34.479Z,14.75
2018-12-14T06:24:02.827Z,15.32
2018-12-14T06:26:31.148Z,13.70
2018-12-14T06:28:59.491Z,15.03
2018-12-14T06:31:27.803Z,15.35
2018-12-14T06:33:56.156Z,15.65
2018-12-14T06:36:24.732Z,14.80
2018-12-14T06:38:53.094Z,14.90
2018-12-14T06:41:21.403Z,14.58
2018-12-14T06:43:49.827Z,14.53
2018-12-14T06:46:18.163Z,14.58
2018-12-14T06:48:46.534Z,15.38
2018-12-14T06:51:14.868Z,14.73
2018-12-14T06:53:43.211Z,15.28
2018-12-14T06:56:11.564Z,16.30
2018-12-14T06:58:39.867Z,13.20
2018-12-14T07:01:08.229Z,16.85
2018-12-14T07:03:37.184Z,15.32
2018-12-14T07:06:05.527Z,16.80
2018-12-14T07:08:34.382Z,15.50
2018-12-14T07:11:02.719Z,15.25
2018-12-14T07:13:31.046Z,15.78
2018-12-14T07:15:59.376Z,16.77
2018-12-14T07:18:27.770Z,13.98
2018-12-14T07:20:56.180Z,15.60
2018-12-14T07:23:24.623Z,14.98
2018-12-14T07:25:53.645Z,15.25
2018-12-14T07:28:22.269Z,14.80
2018-12-14T07:30:51.029Z,13.68
2018-12-14T07:33:19.354Z,15.60
2018-12-14T07:35:47.744Z,15.50
2018-12-14T07:38:16.113Z,15.10
2018-12-14T07:40:44.494Z,16.00
2018-12-14T07:43:12.836Z,16.27
2018-12-14T07:45:41.158Z,15.45
2018-12-14T07:48:09.541Z,14.83
2018-12-14T07:50:37.848Z,15.75
2018-12-14T07:53:09.189Z,14.75
2018-12-14T07:55:36.604Z,14.93
2018-12-14T07:58:04.935Z,16.50
2018-12-14T08:00:33.287Z,14.50
2018-12-14T08:03:01.969Z,14.63
2018-12-14T08:05:30.291Z,16.25
2018-12-14T08:07:58.619Z,17.15
2018-12-14T08:10:27.272Z,16.35
2018-12-14T08:12:56.492Z,14.98
2018-12-14T08:15:25.278Z,14.38
2018-12-14T08:17:53.616Z,14.90
2018-12-14T08:20:21.948Z,16.10
2018-12-14T08:22:50.337Z,15.85
2018-12-14T08:25:18.709Z,16.17
2018-12-14T08:27:47.484Z,14.05
2018-12-14T08:30:15.871Z,16.27
2018-12-14T08:32:44.223Z,14.75
2018-12-14T08:35:12.613Z,15.70
2018-12-14T08:37:41.018Z,15.80
2018-12-14T08:40:09.398Z,15.40
2018-12-14T08:42:37.778Z,15.10
2018-12-14T08:45:06.434Z,14.65
2018-12-14T08:47:35.107Z,14.38
2018-12-14T08:50:03.822Z,14.83
2018-12-14T08:52:32.873Z,15.05
2018-12-14T08:55:01.205Z,16.02
2018-12-14T08:57:29.544Z,16.57
2018-12-14T08:59:57.885Z,16.02
2018-12-14T09:02:27.089Z,15.63
2018-12-14T09:04:55.865Z,16.27
2018-12-14T09:07:24.659Z,17.05
2018-12-14T09:09:53.447Z,17.52
2018-12-14T09:12:21.783Z,15.03
2018-12-14T09:14:50.231Z,15.70
2018-12-14T09:17:19.122Z,16.10
2018-12-14T09:19:48.948Z,16.55
2018-12-14T09:22:17.393Z,13.90
2018-12-14T09:24:45.736Z,15.25
2018-12-14T09:27:14.083Z,15.28
2018-12-14T09:29:42.435Z,15.60
2018-12-14T09:32:10.800Z,15.90
2018-12-14T09:34:39.907Z,16.50
2018-12-14T09:37:08.290Z,15.65
2018-12-14T09:39:36.830Z,16.95
2018-12-14T09:42:05.175Z,16.90
2018-12-14T09:44:33.551Z,17.02
2018-12-14T09:47:01.914Z,16.80
2018-12-14T09:49:30.326Z,17.67
2018-12-14T09:51:58.691Z,14.35
2018-12-14T09:54:26.999Z,16.00
2018-12-14T09:56:55.314Z,16.52
2018-12-14T09:59:23.664Z,16.75
2018-12-14T10:01:52.089Z,16.20
2018-12-14T10:04:20.534Z,15.05
2018-12-14T10:06:48.968Z,14.63
2018-12-14T10:09:17.314Z,15.05
2018-12-14T10:11:45.646Z,16.37
2018-12-14T10:14:13.999Z,15.05
2018-12-14T10:16:43.259Z,17.25
2018-12-14T10:19:11.674Z,16.57
2018-12-14T10:21:40.715Z,15.08
2018-12-14T10:24:09.861Z,15.60
2018-12-14T10:26:38.191Z,15.10
2018-12-14T10:29:06.543Z,16.05
2018-12-14T10:31:35.705Z,15.93
2018-12-14T10:34:04.081Z,15.88
2018-12-14T10:36:33.245Z,15.90
2018-12-14T10:39:01.579Z,15.98
2018-12-14T10:41:29.923Z,13.90
2018-12-14T10:43:58.883Z,16.87
2018-12-14T10:46:27.334Z,15.70
2018-12-14T10:48:55.681Z,16.70
2018-12-14T10:51:23.994Z,15.25
2018-12-14T10:53:52.391Z,17.42
2018-12-14T10:56:21.539Z,15.18
2018-12-14T10:58:49.889Z,15.10
2018-12-14T11:01:24.108Z,16.02
2018-12-14T11:03:52.449Z,16.60
2018-12-14T11:06:20.936Z,15.00
2018-12-14T11:08:49.502Z,16.07
2018-12-14T11:11:18.596Z,15.83
2018-12-14T11:13:47.006Z,16.07
2018-12-14T11:16:15.595Z,15.20
2018-12-14T11:18:44.255Z,15.23
2018-12-14T11:21:12.582Z,16.05
2018-12-14T11:23:40.910Z,15.72
2018-12-14T11:26:09.326Z,14.85
2018-12-14T11:28:37.655Z,16.77
2018-12-14T11:31:05.989Z,16.95
2018-12-14T11:33:34.591Z,16.85
2018-12-14T11:36:03.452Z,17.32
2018-12-14T11:38:31.869Z,16.97
2018-12-14T11:41:00.183Z,17.50
2018-12-14T11:43:29.088Z,17.05
2018-12-14T11:45:57.462Z,15.13
2018-12-14T11:48:25.795Z,17.37
2018-12-14T11:50:54.164Z,15.98
2018-12-14T11:53:22.489Z,17.17
2018-12-14T11:55:51.711Z,15.98
2018-12-14T11:58:20.067Z,15.65
2018-12-14T12:00:48.459Z,14.63
2018-12-14T12:03:16.854Z,16.40
2018-12-14T12:05:45.276Z,14.83
2018-12-14T12:08:13.827Z,14.25
2018-12-14T12:10:42.159Z,16.10
2018-12-14T12:13:10.595Z,15.05
2018-12-14T12:15:38.928Z,15.05
2018-12-14T12:18:07.490Z,14.35
2018-12-14T12:20:35.828Z,15.15
2018-12-14T12:23:04.205Z,14.95
2018-12-14T12:25:32.589Z,16.50
2018-12-14T12:28:01.001Z,15.53
2018-12-14T12:30:30.293Z,16.62
2018-12-14T12:32:58.754Z,14.50
2018-12-14T12:35:27.128Z,14.43
2018-12-14T12:37:55.465Z,15.70
2018-12-14T12:40:23.862Z,14.70
2018-12-14T12:42:52.782Z,17.12
2018-12-14T12:45:21.147Z,15.30
2018-12-14T12:47:49.528Z,14.13
2018-12-14T12:50:18.345Z,16.12
2018-12-14T12:52:46.656Z,15.00
2018-12-14T12:55:15.108Z,15.43
2018-12-14T12:57:43.470Z,15.60
2018-12-14T13:00:19.148Z,15.58
2018-12-14T13:02:47.468Z,14.15
2018-12-14T13:05:15.818Z,15.60
2018-12-14T13:07:44.153Z,16.70
2018-12-14T13:10:12.743Z,17.73
2018-12-14T13:12:41.044Z,18.05
2018-12-14T13:15:09.416Z,15.48
2018-12-14T13:17:37.739Z,15.80
2018-12-14T13:20:06.119Z,17.37
2018-12-14T13:22:34.459Z,15.90
2018-12-14T13:25:02.774Z,15.72
2018-12-14T13:27:31.130Z,15.32
2018-12-14T13:29:59.503Z,15.65
2018-12-14T13:32:27.835Z,15.78
2018-12-14T13:34:56.158Z,15.15
2018-12-14T13:37:24.495Z,14.65
2018-12-14T13:39:52.870Z,16.48
2018-12-14T13:42:21.422Z,15.75
2018-12-14T13:44:49.915Z,14.80
2018-12-14T13:47:18.240Z,14.18
2018-12-14T13:49:46.601Z,14.93
2018-12-14T13:52:15.176Z,14.45
2018-12-14T13:54:43.494Z,15.50
2018-12-14T13:57:11.840Z,13.32
2018-12-14T13:59:40.286Z,14.25
2018-12-14T14:02:08.849Z,15.35
2018-12-14T14:04:37.181Z,13.28
2018-12-14T14:07:05.534Z,13.80
2018-12-14T14:09:33.971Z,14.60
2018-12-14T14:12:02.301Z,14.07
2018-12-14T14:14:30.651Z,14.78
2018-12-14T14:16:58.975Z,13.08
2018-12-14T14:19:27.386Z,15.18
2018-12-14T14:21:55.723Z,14.65
2018-12-14T14:24:24.087Z,14.23
2018-12-14T14:26:52.414Z,14.68
2018-12-14T14:29:20.809Z,13.30
2018-12-14T14:31:49.340Z,15.23
2018-12-14T14:34:17.695Z,15.20
2018-12-14T14:36:46.020Z,14.40
2018-12-14T14:39:14.376Z,13.58
2018-12-14T14:41:42.707Z,14.25
2018-12-14T14:44:11.067Z,12.90
2018-12-14T14:46:39.398Z,13.10
2018-12-14T14:49:07.761Z,13.18
2018-12-14T14:51:36.162Z,13.80
2018-12-14T14:54:04.699Z,13.75
2018-12-14T14:56:33.266Z,15.23
2018-12-14T14:59:01.610Z,14.35
2018-12-14T15:01:29.946Z,13.20
2018-12-14T15:03:58.334Z,14.55
2018-12-14T15:06:26.666Z,13.90
2018-12-14T15:08:55.387Z,14.20
2018-12-14T15:11:23.755Z,14.40
2018-12-14T15:13:52.097Z,14.70
2018-12-14T15:16:20.481Z,13.68
2018-12-14T15:18:48.800Z,14.05
2018-12-14T15:21:17.151Z,12.70
2018-12-14T15:23:45.479Z,14.43
2018-12-14T15:26:13.829Z,14.78
2018-12-14T15:28:42.165Z,13.90
2018-12-14T15:31:10.507Z,15.48
2018-12-14T15:33:38.853Z,14.40
2018-12-14T15:36:07.207Z,14.07
2018-12-14T15:38:35.548Z,14.78
2018-12-14T15:41:03.899Z,14.05
2018-12-14T15:43:32.256Z,15.03
2018-12-14T15:46:00.626Z,15.35
2018-12-14T15:48:29.152Z,15.70
2018-12-14T15:50:57.487Z,13.80
2018-12-14T15:53:25.901Z,15.30
2018-12-14T15:55:54.260Z,14.90
2018-12-14T15:58:22.620Z,14.45
2018-12-14T16:00:51.019Z,14.53
2018-12-14T16:03:19.388Z,14.30
2018-12-14T16:05:47.726Z,14.60
2018-12-14T16:08:16.081Z,13.90
2018-12-14T16:10:44.415Z,15.05
2018-12-14T16:13:12.784Z,13.48
2018-12-14T16:15:41.114Z,14.78
2018-12-14T16:18:09.479Z,14.83
2018-12-14T16:20:38.041Z,14.68
2018-12-14T16:23:06.421Z,14.30
2018-12-14T16:25:34.983Z,15.30
2018-12-14T16:28:03.357Z,15.65
2018-12-14T16:30:31.695Z,16.20
2018-12-14T16:33:00.074Z,17.42
2018-12-14T16:35:28.416Z,15.50
2018-12-14T16:37:56.755Z,15.90
2018-12-14T16:40:25.097Z,14.78
2018-12-14T16:42:53.430Z,15.55
2018-12-14T16:45:26.502Z,17.12
2018-12-14T16:47:52.150Z,15.43
2018-12-14T16:50:20.499Z,16.37
2018-12-14T16:52:48.818Z,15.32
2018-12-14T16:55:17.159Z,14.23
2018-12-14T16:57:45.506Z,14.93
2018-12-14T17:00:13.919Z,15.13
2018-12-14T17:02:42.239Z,13.88
2018-12-14T17:05:10.592Z,16.15
2018-12-14T17:07:38.935Z,14.93
2018-12-14T17:10:07.283Z,15.93
2018-12-14T17:12:35.649Z,17.00
2018-12-14T17:15:04.539Z,16.12
2018-12-14T17:17:32.878Z,17.27
2018-12-14T17:20:01.197Z,17.50
2018-12-14T17:22:29.602Z,16.20
2018-12-14T17:24:57.932Z,15.85
2018-12-14T17:27:26.372Z,16.17
2018-12-14T17:29:54.686Z,17.00
2018-12-14T17:32:23.023Z,16.20
2018-12-14T17:34:51.369Z,15.48
2018-12-14T17:37:19.714Z,16.35
2018-12-14T17:39:48.059Z,16.00
2018-12-14T17:42:16.403Z,16.65
2018-12-14T17:44:44.729Z,15.95
2018-12-14T17:47:13.163Z,17.05
2018-12-14T17:49:41.486Z,15.90
2018-12-14T17:52:09.843Z,17.12
2018-12-14T17:54:38.179Z,17.05
2018-12-14T17:57:06.536Z,16.65
2018-12-14T17:59:34.904Z,17.60
2018-12-14T18:02:03.248Z,19.00
2018-12-14T18:04:31.578Z,17.90
2018-12-14T18:06:59.935Z,18.77
2018-12-14T18:09:28.283Z,18.62
2018-12-14T18:11:56.659Z,18.92
2018-12-14T18:14:25.005Z,19.25
2018-12-14T18:16:53.585Z,18.10
2018-12-14T18:19:21.914Z,19.60
2018-12-14T18:21:50.259Z,18.20
2018-12-14T18:24:18.668Z,17.70
2018-12-14T18:26:47.013Z,16.95
2018-12-14T18:29:15.339Z,16.57
2018-12-14T18:31:43.779Z,18.25
2018-12-14T18:34:12.114Z,17.05
2018-12-14T18:36:40.467Z,16.60
2018-12-14T18:39:08.851Z,17.20
2018-12-14T18:41:37.187Z,16.82
2018-12-14T18:44:05.522Z,18.30
2018-12-14T18:46:34.108Z,17.10
2018-12-14T18:49:02.466Z,16.17
2018-12-14T18:51:30.812Z,15.23
2018-12-14T18:54:00.101Z,17.45
2018-12-14T18:56:29.112Z,16.85
2018-12-14T18:58:58.481Z,17.77
2018-12-14T19:01:26.824Z,15.28
2018-12-14T19:03:55.214Z,19.15
2018-12-14T19:06:23.574Z,17.67
2018-12-14T19:08:51.929Z,15.95
2018-12-14T19:11:20.275Z,17.67
2018-12-14T19:13:48.626Z,16.73
2018-12-14T19:16:16.965Z,18.40
2018-12-14T19:18:45.300Z,19.80
2018-12-14T19:21:13.655Z,18.70
2018-12-14T19:23:41.979Z,18.25
2018-12-14T19:26:10.286Z,19.50
2018-12-14T19:28:38.640Z,16.75
2018-12-14T19:31:06.983Z,16.10
2018-12-14T19:33:35.343Z,17.30
2018-12-14T19:36:03.672Z,17.50
2018-12-14T19:38:32.007Z,15.28
2018-12-14T19:41:00.343Z,16.75
2018-12-14T19:43:28.713Z,15.90
2018-12-14T19:45:57.053Z,15.05
2018-12-14T19:48:25.384Z,17.00
2018-12-14T19:50:53.719Z,16.00
2018-12-14T19:53:22.093Z,17.75
2018-12-14T19:55:50.420Z,17.48
2018-12-14T19:58:18.857Z,17.82
2018-12-14T20:00:47.176Z,17.05
2018-12-14T20:03:15.768Z,16.17
2018-12-14T20:05:44.620Z,16.40
2018-12-14T20:08:12.954Z,16.82
2018-12-14T20:10:41.296Z,16.52
2018-12-14T20:13:09.644Z,16.25
2018-12-14T20:15:37.963Z,18.17
2018-12-14T20:18:07.937Z,18.17
2018-12-14T20:20:36.256Z,16.40
2018-12-14T20:23:04.621Z,15.83
2018-12-14T20:25:32.976Z,15.72
2018-12-14T20:28:01.319Z,16.02
2018-12-14T20:30:29.660Z,16.10
2018-12-14T20:32:57.997Z,16.85
2018-12-14T20:35:26.542Z,16.75
2018-12-14T20:37:55.183Z,17.48
2018-12-14T20:40:23.515Z,16.45
2018-12-14T20:42:51.834Z,19.05
2018-12-14T20:45:20.172Z,16.65
2018-12-14T20:47:48.523Z,16.70
2018-12-14T20:50:17.111Z,16.80
2018-12-14T20:52:45.471Z,16.45
2018-12-14T20:55:13.827Z,17.02
2018-12-14T20:57:42.160Z,16.48
2018-12-14T21:00:10.799Z,15.98
2018-12-14T21:02:39.143Z,16.20
2018-12-14T21:05:07.503Z,15.60
2018-12-14T21:07:35.882Z,16.73
2018-12-14T21:10:04.782Z,15.60
2018-12-14T21:12:33.152Z,15.78
2018-12-14T21:15:01.490Z,16.50
2018-12-14T21:17:30.055Z,18.02
2018-12-14T21:19:58.648Z,17.65
2018-12-14T21:22:27.016Z,17.12
2018-12-14T21:24:55.370Z,16.67
2018-12-14T21:27:23.747Z,16.70
2018-12-14T21:29:52.109Z,15.72
2018-12-14T21:32:20.444Z,16.00
2018-12-14T21:34:48.781Z,17.35
2018-12-14T21:37:17.123Z,16.48
2018-12-14T21:39:45.483Z,15.83
2018-12-14T21:42:14.053Z,15.65
2018-12-14T21:44:42.436Z,17.27
2018-12-14T21:47:11.030Z,16.25
2018-12-14T21:49:39.388Z,15.88
2018-12-14T21:52:07.734Z,16.32
2018-12-14T21:54:36.106Z,16.65
2018-12-14T21:57:04.435Z,18.05
2018-12-14T21:59:32.794Z,17.40
2018-12-14T22:02:01.196Z,15.98
2018-12-14T22:04:29.528Z,19.32
2018-12-14T22:06:57.902Z,15.43
2018-12-14T22:09:26.231Z,16.57
2018-12-14T22:11:54.560Z,16.35
2018-12-14T22:14:22.895Z,16.70
2018-12-14T22:16:51.252Z,15.15
2018-12-14T22:19:19.595Z,16.32
2018-12-14T22:21:47.930Z,17.17
2018-12-14T22:24:16.327Z,17.05
2018-12-14T22:26:44.638Z,16.17
2018-12-14T22:29:12.996Z,15.98
2018-12-14T22:31:41.344Z,16.52
2018-12-14T22:34:09.715Z,15.80
2018-12-14T22:36:38.072Z,16.93
2018-12-14T22:39:06.779Z,15.58
2018-12-14T22:41:36.258Z,16.05
2018-12-14T22:44:04.614Z,17.98
2018-12-14T22:46:32.951Z,17.90
2018-12-14T22:49:01.312Z,15.35
2018-12-14T22:51:29.639Z,15.75
2018-12-14T22:53:57.996Z,16.30
2018-12-14T22:56:26.329Z,15.85
2018-12-14T22:58:54.896Z,16.90
2018-12-14T23:01:23.476Z,14.90
2018-12-14T23:03:51.831Z,14.80
2018-12-14T23:06:20.230Z,16.67
2018-12-14T23:08:48.566Z,15.75
2018-12-14T23:11:16.905Z,17.77
2018-12-14T23:13:45.227Z,15.35
2018-12-14T23:16:13.582Z,19.45
2018-12-14T23:18:41.926Z,19.67
2018-12-14T23:21:10.259Z,18.98
2018-12-14T23:23:38.599Z,16.48
2018-12-14T23:26:06.947Z,15.98
2018-12-14T23:28:35.271Z,14.95
2018-12-14T23:31:03.613Z,14.55
2018-12-14T23:33:31.923Z,15.60
2018-12-14T23:36:00.257Z,15.90
2018-12-14T23:38:28.573Z,17.27
2018-12-14T23:40:56.909Z,15.23
2018-12-14T23:43:25.249Z,15.43
2018-12-14T23:45:53.603Z,16.02
2018-12-14T23:48:21.960Z,17.30
2018-12-14T23:50:50.294Z,16.23
2018-12-14T23:53:18.611Z,16.90
2018-12-14T23:55:46.965Z,16.67
2018-12-14T23:58:15.286Z,16.75
